sensor_id;sensor_type;location;lat;lon;timestamp;P1;durP1;ratioP1;P2;durP2;ratioP2
5351;SDS011;2698;51.454;6.736;2022-12-18T00:00:39;15.30;;;9.53;;
5351;SDS011;2698;51.454;6.736;2022-12-18T00:03:06;14.90;;;9.60;;
5351;SDS011;2698;51.454;6.736;2022-12-18T00:05:33;22.63;;;10.43;;
5351;SDS011;2698;51.454;6.736;2022-12-18T00:07:59;33.93;;;9.97;;
5351;SDS011;2698;51.454;6.736;2022-12-18T00:10:28;14.63;;;8.87;;
5351;SDS011;2698;51.454;6.736;2022-12-18T00:12:55;12.07;;;8.53;;
5351;SDS011;2698;51.454;6.736;2022-12-18T00:15:22;14.07;;;8.47;;
5351;SDS011;2698;51.454;6.736;2022-12-18T00:17:49;14.33;;;9.07;;
5351;SDS011;2698;51.454;6.736;2022-12-18T00:20:16;16.87;;;9.83;;
5351;SDS011;2698;51.454;6.736;2022-12-18T00:22:46;15.80;;;9.30;;
5351;SDS011;2698;51.454;6.736;2022-12-18T00:25:13;14.00;;;8.30;;
5351;SDS011;2698;51.454;6.736;2022-12-18T00:27:41;11.30;;;7.07;;
5351;SDS011;2698;51.454;6.736;2022-12-18T00:30:08;15.33;;;9.77;;
5351;SDS011;2698;51.454;6.736;2022-12-18T00:32:36;14.03;;;7.97;;
5351;SDS011;2698;51.454;6.736;2022-12-18T00:35:03;12.47;;;7.10;;
5351;SDS011;2698;51.454;6.736;2022-12-18T00:37:30;11.47;;;7.33;;
5351;SDS011;2698;51.454;6.736;2022-12-18T00:39:59;17.07;;;7.17;;
5351;SDS011;2698;51.454;6.736;2022-12-18T00:42:25;9.03;;;6.80;;
5351;SDS011;2698;51.454;6.736;2022-12-18T00:45:11;8.83;;;6.40;;
5351;SDS011;2698;51.454;6.736;2022-12-18T00:47:38;16.17;;;7.03;;
5351;SDS011;2698;51.454;6.736;2022-12-18T00:50:06;11.17;;;7.50;;
5351;SDS011;2698;51.454;6.736;2022-12-18T00:52:34;11.67;;;6.97;;
5351;SDS011;2698;51.454;6.736;2022-12-18T00:55:00;10.90;;;7.53;;
5351;SDS011;2698;51.454;6.736;2022-12-18T00:57:27;9.50;;;8.10;;
5351;SDS011;2698;51.454;6.736;2022-12-18T00:59:54;9.37;;;7.23;;
5351;SDS011;2698;51.454;6.736;2022-12-18T01:02:22;15.03;;;8.20;;
5351;SDS011;2698;51.454;6.736;2022-12-18T01:04:49;12.80;;;7.07;;
5351;SDS011;2698;51.454;6.736;2022-12-18T01:07:15;15.70;;;6.70;;
5351;SDS011;2698;51.454;6.736;2022-12-18T01:09:42;16.13;;;7.63;;
5351;SDS011;2698;51.454;6.736;2022-12-18T01:12:09;9.40;;;6.93;;
5351;SDS011;2698;51.454;6.736;2022-12-18T01:14:36;14.50;;;8.60;;
5351;SDS011;2698;51.454;6.736;2022-12-18T01:17:03;9.17;;;6.87;;
5351;SDS011;2698;51.454;6.736;2022-12-18T01:19:32;12.87;;;6.83;;
5351;SDS011;2698;51.454;6.736;2022-12-18T01:21:59;12.10;;;6.97;;
5351;SDS011;2698;51.454;6.736;2022-12-18T01:24:25;10.80;;;6.70;;
5351;SDS011;2698;51.454;6.736;2022-12-18T01:26:52;9.37;;;6.23;;
5351;SDS011;2698;51.454;6.736;2022-12-18T01:29:19;10.10;;;7.17;;
5351;SDS011;2698;51.454;6.736;2022-12-18T01:31:46;11.43;;;6.83;;
5351;SDS011;2698;51.454;6.736;2022-12-18T01:34:13;8.30;;;6.60;;
5351;SDS011;2698;51.454;6.736;2022-12-18T01:36:41;10.40;;;7.30;;
5351;SDS011;2698;51.454;6.736;2022-12-18T01:39:10;12.60;;;7.77;;
5351;SDS011;2698;51.454;6.736;2022-12-18T01:41:38;8.67;;;6.60;;
5351;SDS011;2698;51.454;6.736;2022-12-18T01:47:22;9.67;;;6.47;;
5351;SDS011;2698;51.454;6.736;2022-12-18T01:49:51;12.20;;;7.00;;
5351;SDS011;2698;51.454;6.736;2022-12-18T01:52:20;11.80;;;7.70;;
5351;SDS011;2698;51.454;6.736;2022-12-18T01:54:48;10.73;;;6.37;;
5351;SDS011;2698;51.454;6.736;2022-12-18T01:57:16;10.93;;;6.70;;
5351;SDS011;2698;51.454;6.736;2022-12-18T01:59:44;16.67;;;7.90;;
5351;SDS011;2698;51.454;6.736;2022-12-18T02:02:15;8.23;;;6.80;;
5351;SDS011;2698;51.454;6.736;2022-12-18T02:04:42;15.33;;;7.53;;
5351;SDS011;2698;51.454;6.736;2022-12-18T02:07:10;12.77;;;7.43;;
5351;SDS011;2698;51.454;6.736;2022-12-18T02:09:45;10.10;;;7.20;;
5351;SDS011;2698;51.454;6.736;2022-12-18T02:12:17;10.60;;;8.30;;
5351;SDS011;2698;51.454;6.736;2022-12-18T02:14:47;10.43;;;7.70;;
5351;SDS011;2698;51.454;6.736;2022-12-18T02:17:21;10.03;;;7.90;;
5351;SDS011;2698;51.454;6.736;2022-12-18T02:19:58;12.97;;;7.30;;
5351;SDS011;2698;51.454;6.736;2022-12-18T02:22:35;19.20;;;6.90;;
5351;SDS011;2698;51.454;6.736;2022-12-18T02:25:16;17.00;;;8.10;;
5351;SDS011;2698;51.454;6.736;2022-12-18T02:27:57;11.40;;;7.80;;
5351;SDS011;2698;51.454;6.736;2022-12-18T02:30:27;9.53;;;7.33;;
5351;SDS011;2698;51.454;6.736;2022-12-18T02:32:57;12.63;;;7.90;;
5351;SDS011;2698;51.454;6.736;2022-12-18T02:35:27;10.67;;;6.20;;
5351;SDS011;2698;51.454;6.736;2022-12-18T02:37:56;9.90;;;5.90;;
5351;SDS011;2698;51.454;6.736;2022-12-18T02:40:24;19.30;;;7.70;;
5351;SDS011;2698;51.454;6.736;2022-12-18T02:42:53;9.20;;;6.47;;
5351;SDS011;2698;51.454;6.736;2022-12-18T02:45:21;12.13;;;7.73;;
5351;SDS011;2698;51.454;6.736;2022-12-18T02:47:48;11.17;;;7.90;;
5351;SDS011;2698;51.454;6.736;2022-12-18T02:50:18;14.80;;;7.77;;
5351;SDS011;2698;51.454;6.736;2022-12-18T02:52:54;8.13;;;5.60;;
5351;SDS011;2698;51.454;6.736;2022-12-18T02:55:28;9.60;;;7.00;;
5351;SDS011;2698;51.454;6.736;2022-12-18T02:58:03;8.70;;;6.90;;
5351;SDS011;2698;51.454;6.736;2022-12-18T03:00:39;13.53;;;8.63;;
5351;SDS011;2698;51.454;6.736;2022-12-18T03:03:10;10.63;;;7.70;;
5351;SDS011;2698;51.454;6.736;2022-12-18T03:05:43;10.50;;;6.80;;
5351;SDS011;2698;51.454;6.736;2022-12-18T03:08:14;11.67;;;7.43;;
5351;SDS011;2698;51.454;6.736;2022-12-18T03:10:45;9.30;;;7.10;;
5351;SDS011;2698;51.454;6.736;2022-12-18T03:13:17;13.47;;;7.03;;
5351;SDS011;2698;51.454;6.736;2022-12-18T03:15:52;13.30;;;7.63;;
5351;SDS011;2698;51.454;6.736;2022-12-18T03:18:23;10.10;;;7.17;;
5351;SDS011;2698;51.454;6.736;2022-12-18T03:20:53;10.00;;;7.07;;
5351;SDS011;2698;51.454;6.736;2022-12-18T03:23:24;14.30;;;7.43;;
5351;SDS011;2698;51.454;6.736;2022-12-18T03:25:56;11.33;;;7.40;;
5351;SDS011;2698;51.454;6.736;2022-12-18T03:28:26;11.03;;;7.73;;
5351;SDS011;2698;51.454;6.736;2022-12-18T03:30:57;13.13;;;8.17;;
5351;SDS011;2698;51.454;6.736;2022-12-18T03:33:27;12.80;;;7.40;;
5351;SDS011;2698;51.454;6.736;2022-12-18T03:35:58;13.97;;;8.60;;
5351;SDS011;2698;51.454;6.736;2022-12-18T03:38:25;16.50;;;7.50;;
5351;SDS011;2698;51.454;6.736;2022-12-18T03:40:55;8.50;;;6.80;;
5351;SDS011;2698;51.454;6.736;2022-12-18T03:43:28;12.40;;;7.63;;
5351;SDS011;2698;51.454;6.736;2022-12-18T03:46:04;9.83;;;7.60;;
5351;SDS011;2698;51.454;6.736;2022-12-18T03:48:38;10.60;;;6.77;;
5351;SDS011;2698;51.454;6.736;2022-12-18T03:51:11;9.97;;;6.80;;
5351;SDS011;2698;51.454;6.736;2022-12-18T03:53:45;9.07;;;6.97;;
5351;SDS011;2698;51.454;6.736;2022-12-18T03:56:17;9.97;;;6.17;;
5351;SDS011;2698;51.454;6.736;2022-12-18T03:58:45;11.60;;;6.57;;
5351;SDS011;2698;51.454;6.736;2022-12-18T04:01:16;10.43;;;6.70;;
5351;SDS011;2698;51.454;6.736;2022-12-18T04:03:45;10.23;;;7.00;;
5351;SDS011;2698;51.454;6.736;2022-12-18T04:06:15;11.97;;;6.60;;
5351;SDS011;2698;51.454;6.736;2022-12-18T04:08:42;16.50;;;7.27;;
5351;SDS011;2698;51.454;6.736;2022-12-18T04:11:10;9.20;;;6.30;;
5351;SDS011;2698;51.454;6.736;2022-12-18T04:13:37;10.30;;;6.67;;
5351;SDS011;2698;51.454;6.736;2022-12-18T04:16:04;8.00;;;6.57;;
5351;SDS011;2698;51.454;6.736;2022-12-18T04:18:33;7.70;;;6.23;;
5351;SDS011;2698;51.454;6.736;2022-12-18T04:21:00;10.80;;;6.70;;
5351;SDS011;2698;51.454;6.736;2022-12-18T04:23:27;7.77;;;6.77;;
5351;SDS011;2698;51.454;6.736;2022-12-18T04:25:54;8.40;;;6.73;;
5351;SDS011;2698;51.454;6.736;2022-12-18T04:28:20;10.03;;;6.97;;
5351;SDS011;2698;51.454;6.736;2022-12-18T04:30:47;8.90;;;6.10;;
5351;SDS011;2698;51.454;6.736;2022-12-18T04:33:14;12.20;;;7.97;;
5351;SDS011;2698;51.454;6.736;2022-12-18T04:35:42;7.80;;;6.57;;
5351;SDS011;2698;51.454;6.736;2022-12-18T04:38:09;10.17;;;6.27;;
5351;SDS011;2698;51.454;6.736;2022-12-18T04:40:36;8.10;;;6.77;;
5351;SDS011;2698;51.454;6.736;2022-12-18T04:43:03;10.60;;;7.67;;
5351;SDS011;2698;51.454;6.736;2022-12-18T04:45:31;13.20;;;7.10;;
5351;SDS011;2698;51.454;6.736;2022-12-18T04:47:58;7.83;;;5.80;;
5351;SDS011;2698;51.454;6.736;2022-12-18T04:50:25;10.23;;;6.80;;
5351;SDS011;2698;51.454;6.736;2022-12-18T04:52:54;8.37;;;6.77;;
5351;SDS011;2698;51.454;6.736;2022-12-18T04:55:21;10.60;;;7.33;;
5351;SDS011;2698;51.454;6.736;2022-12-18T04:57:51;9.17;;;6.97;;
5351;SDS011;2698;51.454;6.736;2022-12-18T05:00:18;7.00;;;5.73;;
5351;SDS011;2698;51.454;6.736;2022-12-18T05:02:45;7.60;;;6.80;;
5351;SDS011;2698;51.454;6.736;2022-12-18T05:05:12;8.37;;;6.50;;
5351;SDS011;2698;51.454;6.736;2022-12-18T05:07:39;9.90;;;7.57;;
5351;SDS011;2698;51.454;6.736;2022-12-18T05:10:07;8.43;;;6.10;;
5351;SDS011;2698;51.454;6.736;2022-12-18T05:12:34;9.83;;;6.67;;
5351;SDS011;2698;51.454;6.736;2022-12-18T05:15:22;10.10;;;6.80;;
5351;SDS011;2698;51.454;6.736;2022-12-18T05:17:48;13.73;;;6.70;;
5351;SDS011;2698;51.454;6.736;2022-12-18T05:20:15;9.33;;;6.40;;
5351;SDS011;2698;51.454;6.736;2022-12-18T05:22:43;9.43;;;6.90;;
5351;SDS011;2698;51.454;6.736;2022-12-18T05:25:11;10.17;;;6.73;;
5351;SDS011;2698;51.454;6.736;2022-12-18T05:27:38;10.37;;;7.27;;
5351;SDS011;2698;51.454;6.736;2022-12-18T05:30:05;10.03;;;7.30;;
5351;SDS011;2698;51.454;6.736;2022-12-18T05:32:33;9.00;;;6.40;;
5351;SDS011;2698;51.454;6.736;2022-12-18T05:35:00;8.83;;;6.20;;
5351;SDS011;2698;51.454;6.736;2022-12-18T05:37:26;10.03;;;5.97;;
5351;SDS011;2698;51.454;6.736;2022-12-18T05:39:53;10.20;;;6.20;;
5351;SDS011;2698;51.454;6.736;2022-12-18T05:42:21;9.33;;;6.90;;
5351;SDS011;2698;51.454;6.736;2022-12-18T05:44:48;11.97;;;7.40;;
5351;SDS011;2698;51.454;6.736;2022-12-18T05:47:15;7.53;;;6.30;;
5351;SDS011;2698;51.454;6.736;2022-12-18T05:49:42;9.30;;;6.80;;
5351;SDS011;2698;51.454;6.736;2022-12-18T05:52:08;10.83;;;7.13;;
5351;SDS011;2698;51.454;6.736;2022-12-18T05:54:35;6.97;;;5.47;;
5351;SDS011;2698;51.454;6.736;2022-12-18T05:57:02;8.00;;;5.77;;
5351;SDS011;2698;51.454;6.736;2022-12-18T05:59:30;9.43;;;6.63;;
5351;SDS011;2698;51.454;6.736;2022-12-18T06:01:57;11.40;;;6.63;;
5351;SDS011;2698;51.454;6.736;2022-12-18T06:04:24;10.50;;;7.07;;
5351;SDS011;2698;51.454;6.736;2022-12-18T06:06:52;6.37;;;5.37;;
5351;SDS011;2698;51.454;6.736;2022-12-18T06:09:19;8.30;;;6.90;;
5351;SDS011;2698;51.454;6.736;2022-12-18T06:11:46;8.17;;;5.73;;
5351;SDS011;2698;51.454;6.736;2022-12-18T06:14:13;11.97;;;6.50;;
5351;SDS011;2698;51.454;6.736;2022-12-18T06:16:43;8.30;;;6.20;;
5351;SDS011;2698;51.454;6.736;2022-12-18T06:19:12;7.00;;;5.60;;
5351;SDS011;2698;51.454;6.736;2022-12-18T06:21:40;9.10;;;5.50;;
5351;SDS011;2698;51.454;6.736;2022-12-18T06:24:07;10.40;;;7.37;;
5351;SDS011;2698;51.454;6.736;2022-12-18T06:26:36;14.30;;;6.10;;
5351;SDS011;2698;51.454;6.736;2022-12-18T06:29:03;8.97;;;6.03;;
5351;SDS011;2698;51.454;6.736;2022-12-18T06:31:30;13.70;;;6.77;;
5351;SDS011;2698;51.454;6.736;2022-12-18T06:33:58;10.37;;;6.20;;
5351;SDS011;2698;51.454;6.736;2022-12-18T06:36:25;10.10;;;6.33;;
5351;SDS011;2698;51.454;6.736;2022-12-18T06:38:52;7.73;;;6.00;;
5351;SDS011;2698;51.454;6.736;2022-12-18T06:41:19;10.97;;;6.63;;
5351;SDS011;2698;51.454;6.736;2022-12-18T06:43:47;11.33;;;7.23;;
5351;SDS011;2698;51.454;6.736;2022-12-18T06:46:13;11.00;;;6.93;;
5351;SDS011;2698;51.454;6.736;2022-12-18T06:48:40;9.50;;;7.47;;
5351;SDS011;2698;51.454;6.736;2022-12-18T06:51:09;14.03;;;8.03;;
5351;SDS011;2698;51.454;6.736;2022-12-18T06:53:35;10.20;;;7.03;;
5351;SDS011;2698;51.454;6.736;2022-12-18T06:56:03;10.80;;;7.53;;
5351;SDS011;2698;51.454;6.736;2022-12-18T06:58:31;7.43;;;6.13;;
5351;SDS011;2698;51.454;6.736;2022-12-18T07:00:59;13.10;;;6.90;;
5351;SDS011;2698;51.454;6.736;2022-12-18T07:03:27;10.20;;;6.87;;
5351;SDS011;2698;51.454;6.736;2022-12-18T07:05:54;10.73;;;6.03;;
5351;SDS011;2698;51.454;6.736;2022-12-18T07:08:22;10.83;;;7.90;;
5351;SDS011;2698;51.454;6.736;2022-12-18T07:10:48;11.13;;;8.00;;
5351;SDS011;2698;51.454;6.736;2022-12-18T07:13:15;10.40;;;8.03;;
5351;SDS011;2698;51.454;6.736;2022-12-18T07:15:42;13.13;;;8.33;;
5351;SDS011;2698;51.454;6.736;2022-12-18T07:18:09;12.07;;;7.83;;
5351;SDS011;2698;51.454;6.736;2022-12-18T07:20:36;15.33;;;10.30;;
5351;SDS011;2698;51.454;6.736;2022-12-18T07:23:03;18.90;;;10.70;;
5351;SDS011;2698;51.454;6.736;2022-12-18T07:25:34;19.60;;;9.73;;
5351;SDS011;2698;51.454;6.736;2022-12-18T07:28:01;19.47;;;11.80;;
5351;SDS011;2698;51.454;6.736;2022-12-18T07:30:28;21.13;;;12.50;;
5351;SDS011;2698;51.454;6.736;2022-12-18T07:32:54;23.93;;;13.17;;
5351;SDS011;2698;51.454;6.736;2022-12-18T07:35:21;31.63;;;15.20;;
5351;SDS011;2698;51.454;6.736;2022-12-18T07:37:48;21.43;;;13.70;;
5351;SDS011;2698;51.454;6.736;2022-12-18T07:40:14;33.10;;;15.20;;
5351;SDS011;2698;51.454;6.736;2022-12-18T07:42:43;21.87;;;14.13;;
5351;SDS011;2698;51.454;6.736;2022-12-18T07:45:09;19.10;;;13.00;;
5351;SDS011;2698;51.454;6.736;2022-12-18T07:47:36;22.33;;;13.03;;
5351;SDS011;2698;51.454;6.736;2022-12-18T07:50:04;25.60;;;13.87;;
5351;SDS011;2698;51.454;6.736;2022-12-18T07:52:31;29.83;;;11.90;;
5351;SDS011;2698;51.454;6.736;2022-12-18T07:54:58;12.70;;;8.70;;
5351;SDS011;2698;51.454;6.736;2022-12-18T07:57:24;21.93;;;9.07;;
5351;SDS011;2698;51.454;6.736;2022-12-18T07:59:52;14.60;;;9.93;;
5351;SDS011;2698;51.454;6.736;2022-12-18T08:02:19;15.50;;;8.80;;
5351;SDS011;2698;51.454;6.736;2022-12-18T08:04:46;14.67;;;9.30;;
5351;SDS011;2698;51.454;6.736;2022-12-18T08:07:13;16.20;;;8.43;;
5351;SDS011;2698;51.454;6.736;2022-12-18T08:09:39;11.63;;;7.23;;
5351;SDS011;2698;51.454;6.736;2022-12-18T08:12:06;10.30;;;7.00;;
5351;SDS011;2698;51.454;6.736;2022-12-18T08:14:33;13.37;;;8.57;;
5351;SDS011;2698;51.454;6.736;2022-12-18T08:17:02;11.33;;;7.50;;
5351;SDS011;2698;51.454;6.736;2022-12-18T08:19:29;10.63;;;8.03;;
5351;SDS011;2698;51.454;6.736;2022-12-18T08:21:55;18.10;;;8.70;;
5351;SDS011;2698;51.454;6.736;2022-12-18T08:24:22;14.50;;;7.77;;
5351;SDS011;2698;51.454;6.736;2022-12-18T08:26:49;14.50;;;8.63;;
5351;SDS011;2698;51.454;6.736;2022-12-18T08:29:15;14.73;;;9.07;;
5351;SDS011;2698;51.454;6.736;2022-12-18T08:31:42;20.30;;;9.90;;
5351;SDS011;2698;51.454;6.736;2022-12-18T08:34:10;17.97;;;10.93;;
5351;SDS011;2698;51.454;6.736;2022-12-18T08:36:37;14.40;;;9.87;;
5351;SDS011;2698;51.454;6.736;2022-12-18T08:39:04;16.20;;;9.77;;
5351;SDS011;2698;51.454;6.736;2022-12-18T08:41:30;15.33;;;9.77;;
5351;SDS011;2698;51.454;6.736;2022-12-18T08:43:57;15.10;;;10.67;;
5351;SDS011;2698;51.454;6.736;2022-12-18T08:46:42;15.93;;;10.43;;
5351;SDS011;2698;51.454;6.736;2022-12-18T08:49:11;16.07;;;9.60;;
5351;SDS011;2698;51.454;6.736;2022-12-18T08:51:38;21.93;;;10.60;;
5351;SDS011;2698;51.454;6.736;2022-12-18T08:54:05;16.27;;;9.00;;
5351;SDS011;2698;51.454;6.736;2022-12-18T08:56:32;19.97;;;10.03;;
5351;SDS011;2698;51.454;6.736;2022-12-18T08:58:59;14.30;;;8.67;;
5351;SDS011;2698;51.454;6.736;2022-12-18T09:01:26;15.50;;;7.13;;
5351;SDS011;2698;51.454;6.736;2022-12-18T09:03:53;14.17;;;8.73;;
5351;SDS011;2698;51.454;6.736;2022-12-18T09:06:22;11.50;;;7.80;;
5351;SDS011;2698;51.454;6.736;2022-12-18T09:08:49;13.87;;;8.00;;
5351;SDS011;2698;51.454;6.736;2022-12-18T09:11:18;44.03;;;9.33;;
5351;SDS011;2698;51.454;6.736;2022-12-18T09:13:46;12.80;;;8.70;;
5351;SDS011;2698;51.454;6.736;2022-12-18T09:16:13;12.13;;;8.30;;
5351;SDS011;2698;51.454;6.736;2022-12-18T09:18:40;10.80;;;7.50;;
5351;SDS011;2698;51.454;6.736;2022-12-18T09:21:08;13.83;;;7.77;;
5351;SDS011;2698;51.454;6.736;2022-12-18T09:23:37;14.60;;;6.90;;
5351;SDS011;2698;51.454;6.736;2022-12-18T09:26:04;13.97;;;9.20;;
5351;SDS011;2698;51.454;6.736;2022-12-18T09:28:31;10.83;;;6.70;;
5351;SDS011;2698;51.454;6.736;2022-12-18T09:30:57;10.60;;;7.43;;
5351;SDS011;2698;51.454;6.736;2022-12-18T09:33:24;12.27;;;6.17;;
5351;SDS011;2698;51.454;6.736;2022-12-18T09:35:51;10.50;;;7.33;;
5351;SDS011;2698;51.454;6.736;2022-12-18T09:38:18;10.50;;;8.00;;
5351;SDS011;2698;51.454;6.736;2022-12-18T09:40:48;8.67;;;6.67;;
5351;SDS011;2698;51.454;6.736;2022-12-18T09:43:17;10.27;;;7.50;;
5351;SDS011;2698;51.454;6.736;2022-12-18T09:45:46;7.83;;;6.30;;
5351;SDS011;2698;51.454;6.736;2022-12-18T09:48:16;8.63;;;5.73;;
5351;SDS011;2698;51.454;6.736;2022-12-18T09:50:46;9.63;;;6.07;;
5351;SDS011;2698;51.454;6.736;2022-12-18T09:53:15;6.43;;;5.30;;
5351;SDS011;2698;51.454;6.736;2022-12-18T09:55:47;10.10;;;6.70;;
5351;SDS011;2698;51.454;6.736;2022-12-18T09:58:17;10.77;;;5.57;;
5351;SDS011;2698;51.454;6.736;2022-12-18T10:00:51;10.07;;;6.50;;
5351;SDS011;2698;51.454;6.736;2022-12-18T10:03:18;8.80;;;5.27;;
5351;SDS011;2698;51.454;6.736;2022-12-18T10:05:46;11.00;;;6.97;;
5351;SDS011;2698;51.454;6.736;2022-12-18T10:08:22;9.40;;;5.73;;
5351;SDS011;2698;51.454;6.736;2022-12-18T10:11:01;8.23;;;5.47;;
5351;SDS011;2698;51.454;6.736;2022-12-18T10:13:41;8.63;;;7.00;;
5351;SDS011;2698;51.454;6.736;2022-12-18T10:16:12;12.60;;;6.50;;
5351;SDS011;2698;51.454;6.736;2022-12-18T10:19:00;11.97;;;6.90;;
5351;SDS011;2698;51.454;6.736;2022-12-18T10:21:38;8.50;;;6.40;;
5351;SDS011;2698;51.454;6.736;2022-12-18T10:24:13;10.37;;;6.20;;
5351;SDS011;2698;51.454;6.736;2022-12-18T10:26:46;9.80;;;5.67;;
5351;SDS011;2698;51.454;6.736;2022-12-18T10:29:14;8.20;;;6.50;;
5351;SDS011;2698;51.454;6.736;2022-12-18T10:31:42;10.50;;;5.93;;
5351;SDS011;2698;51.454;6.736;2022-12-18T10:34:09;12.20;;;6.30;;
5351;SDS011;2698;51.454;6.736;2022-12-18T10:36:36;11.27;;;6.03;;
5351;SDS011;2698;51.454;6.736;2022-12-18T10:39:14;12.67;;;7.20;;
5351;SDS011;2698;51.454;6.736;2022-12-18T10:41:42;7.33;;;5.50;;
5351;SDS011;2698;51.454;6.736;2022-12-18T10:44:15;6.80;;;5.37;;
5351;SDS011;2698;51.454;6.736;2022-12-18T10:46:43;8.00;;;6.00;;
5351;SDS011;2698;51.454;6.736;2022-12-18T10:49:21;7.10;;;6.10;;
5351;SDS011;2698;51.454;6.736;2022-12-18T10:51:51;7.40;;;5.40;;
5351;SDS011;2698;51.454;6.736;2022-12-18T10:54:30;12.90;;;6.97;;
5351;SDS011;2698;51.454;6.736;2022-12-18T10:57:13;10.10;;;7.07;;
5351;SDS011;2698;51.454;6.736;2022-12-18T10:59:51;7.90;;;6.00;;
5351;SDS011;2698;51.454;6.736;2022-12-18T11:02:26;10.60;;;6.70;;
5351;SDS011;2698;51.454;6.736;2022-12-18T11:04:59;11.60;;;6.13;;
5351;SDS011;2698;51.454;6.736;2022-12-18T11:07:29;9.03;;;6.33;;
5351;SDS011;2698;51.454;6.736;2022-12-18T11:10:15;7.20;;;5.17;;
5351;SDS011;2698;51.454;6.736;2022-12-18T11:12:43;8.63;;;5.57;;
5351;SDS011;2698;51.454;6.736;2022-12-18T11:15:15;11.03;;;7.00;;
5351;SDS011;2698;51.454;6.736;2022-12-18T11:17:44;9.47;;;6.13;;
5351;SDS011;2698;51.454;6.736;2022-12-18T11:20:24;9.90;;;6.33;;
5351;SDS011;2698;51.454;6.736;2022-12-18T11:22:57;7.30;;;5.77;;
5351;SDS011;2698;51.454;6.736;2022-12-18T11:25:25;26.30;;;6.77;;
5351;SDS011;2698;51.454;6.736;2022-12-18T11:27:53;7.00;;;5.60;;
5351;SDS011;2698;51.454;6.736;2022-12-18T11:30:24;11.50;;;6.60;;
5351;SDS011;2698;51.454;6.736;2022-12-18T11:32:53;9.50;;;7.20;;
5351;SDS011;2698;51.454;6.736;2022-12-18T11:35:24;9.73;;;6.93;;
5351;SDS011;2698;51.454;6.736;2022-12-18T11:38:02;11.13;;;6.93;;
5351;SDS011;2698;51.454;6.736;2022-12-18T11:40:33;8.53;;;6.50;;
5351;SDS011;2698;51.454;6.736;2022-12-18T11:43:03;9.57;;;6.43;;
5351;SDS011;2698;51.454;6.736;2022-12-18T11:45:39;13.37;;;7.97;;
5351;SDS011;2698;51.454;6.736;2022-12-18T11:48:12;9.73;;;6.40;;
5351;SDS011;2698;51.454;6.736;2022-12-18T11:50:46;8.60;;;6.57;;
5351;SDS011;2698;51.454;6.736;2022-12-18T11:53:16;13.90;;;7.27;;
5351;SDS011;2698;51.454;6.736;2022-12-18T11:55:48;13.30;;;6.93;;
5351;SDS011;2698;51.454;6.736;2022-12-18T11:58:23;15.30;;;7.83;;
5351;SDS011;2698;51.454;6.736;2022-12-18T12:01:05;13.40;;;7.67;;
5351;SDS011;2698;51.454;6.736;2022-12-18T12:03:44;11.23;;;7.07;;
5351;SDS011;2698;51.454;6.736;2022-12-18T12:06:25;9.97;;;7.67;;
5351;SDS011;2698;51.454;6.736;2022-12-18T12:09:03;9.63;;;7.10;;
5351;SDS011;2698;51.454;6.736;2022-12-18T12:11:39;7.80;;;6.13;;
5351;SDS011;2698;51.454;6.736;2022-12-18T12:14:30;12.43;;;7.40;;
5351;SDS011;2698;51.454;6.736;2022-12-18T12:17:09;10.90;;;6.93;;
5351;SDS011;2698;51.454;6.736;2022-12-18T12:19:42;10.70;;;6.40;;
5351;SDS011;2698;51.454;6.736;2022-12-18T12:22:18;11.10;;;7.10;;
5351;SDS011;2698;51.454;6.736;2022-12-18T12:24:54;10.70;;;6.87;;
5351;SDS011;2698;51.454;6.736;2022-12-18T12:27:33;12.10;;;7.37;;
5351;SDS011;2698;51.454;6.736;2022-12-18T12:30:05;16.90;;;7.10;;
5351;SDS011;2698;51.454;6.736;2022-12-18T12:32:39;11.63;;;7.50;;
5351;SDS011;2698;51.454;6.736;2022-12-18T12:35:18;13.47;;;7.83;;
5351;SDS011;2698;51.454;6.736;2022-12-18T12:37:53;16.90;;;7.97;;
5351;SDS011;2698;51.454;6.736;2022-12-18T12:40:27;10.20;;;6.93;;
5351;SDS011;2698;51.454;6.736;2022-12-18T12:42:58;14.00;;;8.07;;
5351;SDS011;2698;51.454;6.736;2022-12-18T12:45:39;12.97;;;8.17;;
5351;SDS011;2698;51.454;6.736;2022-12-18T12:48:16;15.10;;;8.60;;
5351;SDS011;2698;51.454;6.736;2022-12-18T12:50:47;15.90;;;8.50;;
5351;SDS011;2698;51.454;6.736;2022-12-18T12:53:18;13.73;;;8.00;;
5351;SDS011;2698;51.454;6.736;2022-12-18T12:55:51;14.70;;;8.50;;
5351;SDS011;2698;51.454;6.736;2022-12-18T12:58:21;14.30;;;7.83;;
5351;SDS011;2698;51.454;6.736;2022-12-18T13:00:58;11.73;;;7.57;;
5351;SDS011;2698;51.454;6.736;2022-12-18T13:03:37;13.23;;;8.47;;
5351;SDS011;2698;51.454;6.736;2022-12-18T13:06:12;15.80;;;8.43;;
5351;SDS011;2698;51.454;6.736;2022-12-18T13:08:53;15.73;;;9.20;;
5351;SDS011;2698;51.454;6.736;2022-12-18T13:11:29;14.73;;;9.00;;
5351;SDS011;2698;51.454;6.736;2022-12-18T13:14:23;21.03;;;9.37;;
5351;SDS011;2698;51.454;6.736;2022-12-18T13:19:42;16.03;;;8.60;;
5351;SDS011;2698;51.454;6.736;2022-12-18T13:22:20;11.43;;;7.93;;
5351;SDS011;2698;51.454;6.736;2022-12-18T13:24:48;16.17;;;10.23;;
5351;SDS011;2698;51.454;6.736;2022-12-18T13:36:09;15.37;;;9.30;;
5351;SDS011;2698;51.454;6.736;2022-12-18T13:38:40;19.07;;;10.63;;
5351;SDS011;2698;51.454;6.736;2022-12-18T13:41:21;11.60;;;7.80;;
5351;SDS011;2698;51.454;6.736;2022-12-18T13:43:50;14.20;;;9.77;;
5351;SDS011;2698;51.454;6.736;2022-12-18T13:46:19;20.00;;;10.17;;
5351;SDS011;2698;51.454;6.736;2022-12-18T13:48:52;17.43;;;10.90;;
5351;SDS011;2698;51.454;6.736;2022-12-18T13:51:24;13.60;;;9.40;;
5351;SDS011;2698;51.454;6.736;2022-12-18T13:53:53;19.83;;;10.03;;
5351;SDS011;2698;51.454;6.736;2022-12-18T13:56:23;16.17;;;10.30;;
5351;SDS011;2698;51.454;6.736;2022-12-18T13:59:14;15.63;;;10.17;;
5351;SDS011;2698;51.454;6.736;2022-12-18T14:01:44;24.83;;;10.33;;
5351;SDS011;2698;51.454;6.736;2022-12-18T14:04:20;17.10;;;10.43;;
5351;SDS011;2698;51.454;6.736;2022-12-18T14:06:55;25.03;;;9.80;;
5351;SDS011;2698;51.454;6.736;2022-12-18T14:09:25;14.73;;;8.90;;
5351;SDS011;2698;51.454;6.736;2022-12-18T14:11:54;12.80;;;9.43;;
5351;SDS011;2698;51.454;6.736;2022-12-18T14:14:44;13.30;;;9.93;;
5351;SDS011;2698;51.454;6.736;2022-12-18T14:17:13;17.20;;;9.90;;
5351;SDS011;2698;51.454;6.736;2022-12-18T14:19:42;13.37;;;9.53;;
5351;SDS011;2698;51.454;6.736;2022-12-18T14:22:14;16.00;;;10.23;;
5351;SDS011;2698;51.454;6.736;2022-12-18T14:24:43;16.70;;;10.30;;
5351;SDS011;2698;51.454;6.736;2022-12-18T14:27:20;16.50;;;10.63;;
5351;SDS011;2698;51.454;6.736;2022-12-18T14:29:49;46.10;;;10.90;;
5351;SDS011;2698;51.454;6.736;2022-12-18T14:32:16;19.00;;;10.93;;
5351;SDS011;2698;51.454;6.736;2022-12-18T14:34:45;22.67;;;10.80;;
5351;SDS011;2698;51.454;6.736;2022-12-18T14:37:13;17.80;;;11.30;;
5351;SDS011;2698;51.454;6.736;2022-12-18T14:39:52;18.43;;;10.80;;
5351;SDS011;2698;51.454;6.736;2022-12-18T14:42:23;20.30;;;11.50;;
5351;SDS011;2698;51.454;6.736;2022-12-18T14:47:53;17.97;;;10.83;;
5351;SDS011;2698;51.454;6.736;2022-12-18T14:50:20;19.30;;;12.03;;
5351;SDS011;2698;51.454;6.736;2022-12-18T14:52:48;19.13;;;11.60;;
5351;SDS011;2698;51.454;6.736;2022-12-18T14:55:16;24.57;;;13.70;;
5351;SDS011;2698;51.454;6.736;2022-12-18T14:57:44;20.13;;;12.17;;
5351;SDS011;2698;51.454;6.736;2022-12-18T15:00:14;20.50;;;13.70;;
5351;SDS011;2698;51.454;6.736;2022-12-18T15:02:43;20.83;;;11.43;;
5351;SDS011;2698;51.454;6.736;2022-12-18T15:05:16;20.10;;;12.03;;
5351;SDS011;2698;51.454;6.736;2022-12-18T15:07:46;28.43;;;12.43;;
5351;SDS011;2698;51.454;6.736;2022-12-18T15:10:17;21.00;;;12.43;;
5351;SDS011;2698;51.454;6.736;2022-12-18T15:12:48;21.83;;;13.03;;
5351;SDS011;2698;51.454;6.736;2022-12-18T15:18:13;22.40;;;13.17;;
5351;SDS011;2698;51.454;6.736;2022-12-18T15:20:43;24.10;;;13.00;;
5351;SDS011;2698;51.454;6.736;2022-12-18T15:23:15;24.80;;;12.13;;
5351;SDS011;2698;51.454;6.736;2022-12-18T15:25:44;21.93;;;12.73;;
5351;SDS011;2698;51.454;6.736;2022-12-18T15:28:18;22.90;;;13.73;;
5351;SDS011;2698;51.454;6.736;2022-12-18T15:31:06;20.80;;;13.73;;
5351;SDS011;2698;51.454;6.736;2022-12-18T15:33:59;20.80;;;12.00;;
5351;SDS011;2698;51.454;6.736;2022-12-18T15:36:32;21.47;;;13.87;;
5351;SDS011;2698;51.454;6.736;2022-12-18T15:39:02;22.27;;;14.33;;
5351;SDS011;2698;51.454;6.736;2022-12-18T15:41:31;19.07;;;12.27;;